Garvin, Oklahoma
Current Conditions -  °F | °C
As of 5:55 AM on Thursday 27 Nov 2014 (Local Time) from K4O4 Reporting Station
Clear Clear  
Wind Chill: 29°   Ceiling: Unl
Heat Index: 34°   Visibility: 10mi
Dew Point: 27°   Wind: 6mph
Humidity: 75%   Direction: 290°WNW
Pressure: 30.5"   Gusts: NA
Location:  33.95°N, 94.94°W
Report Text: K4O4 271155Z AUTO 29005KT 10SM CLR 01/M03 A3050 RMK AO2
Loading
Personal Weather Stations






























Interactive Weather Map New forecast layout! Learn more

10-Day Weather Forecast

Advertisements
Track Severe Weather on mobile